PWSweather.com
Personal Weather Stations
Station Observations
KILMORRI1
Goose Lake, Morris, IL 60450

Goose LakeMorris, IL 60450

Lat: 41.34, Lon: -88.3

Elevation: 523

Station Type:

Latest ConditionsUpdated 4:40:04 PM CDT Thursday, May 25, 2017
Currently Today's Max Today's Min Today's Average
Temperature 67.2°F19.6°C 68.3°F20.2°C 53.3°F11.8°C 58.4°F14.7°C
Dew Point 58.2°F14.6°C 59.3°F15.2°C 51.3°F10.7°C 54.0°F12.2°C
Winds 6.9 mph NW11.1 kmh NW 10.4 mph N16.7 kmh N - 5.5 mph 8.9 kmh
Wind Gusts 9.2 mph14.8 kmh 16.1 mph25.9 kmh - -
Humidity 73% 93% 71% 86%
Pressure 29.64 in1003.7 mb 29.64 in1003.7 mb 29.51 in999.3 mb -
Hour Temp Dew Point Humidity Winds Wind Gusts Pressure Precip Precip Rate Daily Precip Total
04:40 PM 67.2°F19.6°C 58.2°F14.6°C 73% 6.9 mph NW11.1 kmh NW 9.2 mph14.8 kmh 29.64 in1003.7 mb - 0.00 in0.0 mm 0.00 in0.0 mm
04:30 PM 66.4°F19.1°C 58.2°F14.6°C 75% 6.9 mph NW11.1 kmh NW 11.5 mph18.5 kmh 29.64 in1003.7 mb - 0.00 in0.0 mm 0.00 in0.0 mm
04:20 PM 66.6°F19.2°C 58.1°F14.5°C 74% 4.6 mph NW7.4 kmh NW 6.9 mph11.1 kmh 29.64 in1003.7 mb - 0.00 in0.0 mm 0.00 in0.0 mm
04:10 PM 66.4°F19.1°C 58.6°F14.8°C 76% 4.6 mph NW7.4 kmh NW 8.1 mph13.0 kmh 29.64 in1003.7 mb - 0.00 in0.0 mm 0.00 in0.0 mm
04:00 PM 66.4°F19.1°C 57.5°F14.2°C 73% 4.6 mph WNW7.4 kmh WNW 6.9 mph11.1 kmh 29.64 in1003.7 mb - 0.00 in0.0 mm 0.00 in0.0 mm
03:50 PM 66.4°F19.1°C 58.6°F14.8°C 76% 5.8 mph WNW9.3 kmh WNW 9.2 mph14.8 kmh 29.64 in1003.7 mb - 0.00 in0.0 mm 0.00 in0.0 mm
03:40 PM 66.9°F19.4°C 58.0°F14.4°C 73% 6.9 mph NW11.1 kmh NW 11.5 mph18.5 kmh 29.64 in1003.7 mb - 0.00 in0.0 mm 0.00 in0.0 mm
03:30 PM 68.0°F20.0°C 58.2°F14.6°C 71% 5.8 mph NW9.3 kmh NW 10.4 mph16.7 kmh 29.64 in1003.7 mb - 0.00 in0.0 mm 0.00 in0.0 mm
03:20 PM 67.7°F19.8°C 58.8°F14.9°C 73% 6.9 mph NW11.1 kmh NW 11.5 mph18.5 kmh 29.64 in1003.7 mb - 0.00 in0.0 mm 0.00 in0.0 mm
03:10 PM 68.3°F20.2°C 59.3°F15.2°C 73% 5.8 mph NW9.3 kmh NW 9.2 mph14.8 kmh 29.63 in1003.4 mb - 0.00 in0.0 mm 0.00 in0.0 mm
03:00 PM 67.3°F19.6°C 58.3°F14.6°C 73% 3.5 mph WNW5.6 kmh WNW 5.8 mph9.3 kmh 29.63 in1003.4 mb - 0.00 in0.0 mm 0.00 in0.0 mm
02:50 PM 65.5°F18.6°C 57.7°F14.3°C 76% 4.6 mph NW7.4 kmh NW 10.4 mph16.7 kmh 29.63 in1003.4 mb - 0.00 in0.0 mm 0.00 in0.0 mm
02:40 PM 65.4°F18.6°C 57.6°F14.2°C 76% 4.6 mph NW7.4 kmh NW 5.8 mph9.3 kmh 29.63 in1003.4 mb - 0.00 in0.0 mm 0.00 in0.0 mm
02:30 PM 66.0°F18.9°C 58.2°F14.6°C 76% 6.9 mph NW11.1 kmh NW 8.1 mph13.0 kmh 29.63 in1003.4 mb - 0.00 in0.0 mm 0.00 in0.0 mm
02:20 PM 65.3°F18.5°C 57.5°F14.2°C 76% 5.8 mph NW9.3 kmh NW 8.1 mph13.0 kmh 29.63 in1003.4 mb - 0.00 in0.0 mm 0.00 in0.0 mm
02:10 PM 64.0°F17.8°C 57.0°F13.9°C 78% 6.9 mph NW11.1 kmh NW 13.8 mph22.2 kmh 29.64 in1003.7 mb - 0.00 in0.0 mm 0.00 in0.0 mm
02:00 PM 63.5°F17.5°C 57.2°F14.0°C 80% 6.9 mph NW11.1 kmh NW 10.4 mph16.7 kmh 29.64 in1003.7 mb - 0.00 in0.0 mm 0.00 in0.0 mm
01:50 PM 62.5°F16.9°C 55.9°F13.3°C 79% 5.8 mph NW9.3 kmh NW 5.8 mph9.3 kmh 29.64 in1003.7 mb - 0.00 in0.0 mm 0.00 in0.0 mm
01:40 PM 61.5°F16.4°C 55.9°F13.3°C 82% 4.6 mph NW7.4 kmh NW 5.8 mph9.3 kmh 29.64 in1003.7 mb - 0.00 in0.0 mm 0.00 in0.0 mm
01:30 PM 61.2°F16.2°C 55.0°F12.8°C 80% 4.6 mph NW7.4 kmh NW 9.2 mph14.8 kmh 29.64 in1003.7 mb - 0.00 in0.0 mm 0.00 in0.0 mm
01:20 PM 61.3°F16.3°C 55.4°F13.0°C 81% 8.1 mph NW13.0 kmh NW 11.5 mph18.5 kmh 29.64 in1003.7 mb - 0.00 in0.0 mm 0.00 in0.0 mm
01:10 PM 61.6°F16.4°C 55.7°F13.2°C 81% 5.8 mph NW9.3 kmh NW 11.5 mph18.5 kmh 29.64 in1003.7 mb - 0.00 in0.0 mm 0.00 in0.0 mm
01:00 PM 62.5°F16.9°C 56.3°F13.5°C 80% 8.1 mph NW13.0 kmh NW 12.7 mph20.4 kmh 29.64 in1003.7 mb - 0.00 in0.0 mm 0.00 in0.0 mm
12:50 PM 63.2°F17.3°C 57.9°F14.4°C 83% 6.9 mph NW11.1 kmh NW 8.1 mph13.0 kmh 29.63 in1003.4 mb - 0.00 in0.0 mm 0.00 in0.0 mm
12:40 PM 62.6°F17.0°C 57.3°F14.1°C 83% 9.2 mph NW14.8 kmh NW 13.8 mph22.2 kmh 29.63 in1003.4 mb - 0.00 in0.0 mm 0.00 in0.0 mm
12:30 PM 61.1°F16.2°C 55.6°F13.1°C 82% 10.4 mph NW16.7 kmh NW 12.7 mph20.4 kmh 29.64 in1003.7 mb - 0.00 in0.0 mm 0.00 in0.0 mm
12:20 PM 60.5°F15.8°C 55.3°F12.9°C 83% 8.1 mph NW13.0 kmh NW 11.5 mph18.5 kmh 29.63 in1003.4 mb - 0.00 in0.0 mm 0.00 in0.0 mm
12:10 PM 60.2°F15.7°C 55.3°F12.9°C 84% 5.8 mph NW9.3 kmh NW 8.1 mph13.0 kmh 29.63 in1003.4 mb - 0.00 in0.0 mm 0.00 in0.0 mm
12:00 PM 60.1°F15.6°C 54.9°F12.7°C 83% 6.9 mph NW11.1 kmh NW 12.7 mph20.4 kmh 29.63 in1003.4 mb - 0.00 in0.0 mm 0.00 in0.0 mm
11:50 AM 60.1°F15.6°C 55.2°F12.9°C 84% 5.8 mph NW9.3 kmh NW 10.4 mph16.7 kmh 29.62 in1003.0 mb - 0.00 in0.0 mm 0.00 in0.0 mm
11:40 AM 59.9°F15.5°C 55.1°F12.8°C 84% 6.9 mph NW11.1 kmh NW 11.5 mph18.5 kmh 29.63 in1003.4 mb - 0.00 in0.0 mm 0.00 in0.0 mm
11:30 AM 59.8°F15.4°C 54.7°F12.6°C 83% 5.8 mph NW9.3 kmh NW 9.2 mph14.8 kmh 29.62 in1003.0 mb - 0.00 in0.0 mm 0.00 in0.0 mm
11:20 AM 60.0°F15.6°C 54.8°F12.7°C 83% 6.9 mph NW11.1 kmh NW 10.4 mph16.7 kmh 29.62 in1003.0 mb - 0.00 in0.0 mm 0.00 in0.0 mm
11:10 AM 60.7°F15.9°C 55.1°F12.8°C 82% 6.9 mph NW11.1 kmh NW 10.4 mph16.7 kmh 29.62 in1003.0 mb - 0.00 in0.0 mm 0.00 in0.0 mm
11:00 AM 59.9°F15.5°C 54.7°F12.6°C 83% 3.5 mph N5.6 kmh N 5.8 mph9.3 kmh 29.62 in1003.0 mb - 0.00 in0.0 mm 0.00 in0.0 mm
10:50 AM 59.7°F15.4°C 54.8°F12.7°C 84% 3.5 mph NW5.6 kmh NW 8.1 mph13.0 kmh 29.62 in1003.0 mb - 0.00 in0.0 mm 0.00 in0.0 mm
10:40 AM 59.8°F15.4°C 55.0°F12.8°C 84% 3.5 mph N5.6 kmh N 5.8 mph9.3 kmh 29.62 in1003.0 mb - 0.00 in0.0 mm 0.00 in0.0 mm
10:30 AM 58.9°F14.9°C 53.7°F12.1°C 83% 4.6 mph NNE7.4 kmh NNE 5.8 mph9.3 kmh 29.62 in1003.0 mb - 0.00 in0.0 mm 0.00 in0.0 mm
10:20 AM 59.1°F15.1°C 53.9°F12.2°C 83% 8.1 mph NNW13.0 kmh NNW 10.4 mph16.7 kmh 29.61 in1002.7 mb - 0.00 in0.0 mm 0.00 in0.0 mm
10:10 AM 59.4°F15.2°C 54.6°F12.6°C 84% 6.9 mph N11.1 kmh N 11.5 mph18.5 kmh 29.61 in1002.7 mb - 0.00 in0.0 mm 0.00 in0.0 mm
10:00 AM 58.2°F14.6°C 53.4°F11.9°C 84% 3.5 mph N5.6 kmh N 4.6 mph7.4 kmh 29.61 in1002.7 mb - 0.00 in0.0 mm 0.00 in0.0 mm
09:50 AM 58.0°F14.4°C 53.5°F11.9°C 85% 6.9 mph NNW11.1 kmh NNW 13.8 mph22.2 kmh 29.62 in1003.0 mb - 0.00 in0.0 mm 0.00 in0.0 mm
09:40 AM 58.0°F14.4°C 53.5°F11.9°C 85% 5.8 mph NW9.3 kmh NW 10.4 mph16.7 kmh 29.61 in1002.7 mb - 0.00 in0.0 mm 0.00 in0.0 mm
09:30 AM 58.2°F14.6°C 54.0°F12.2°C 86% 4.6 mph N7.4 kmh N 10.4 mph16.7 kmh 29.61 in1002.7 mb - 0.00 in0.0 mm 0.00 in0.0 mm
09:20 AM 58.3°F14.6°C 53.8°F12.1°C 85% 6.9 mph N11.1 kmh N 12.7 mph20.4 kmh 29.60 in1002.4 mb - 0.00 in0.0 mm 0.00 in0.0 mm
09:10 AM 58.2°F14.6°C 54.0°F12.2°C 86% 5.8 mph N9.3 kmh N 11.5 mph18.5 kmh 29.60 in1002.4 mb - 0.00 in0.0 mm 0.00 in0.0 mm
09:00 AM 57.4°F14.1°C 53.6°F12.0°C 87% 4.6 mph N7.4 kmh N 9.2 mph14.8 kmh 29.61 in1002.7 mb - 0.00 in0.0 mm 0.00 in0.0 mm
08:50 AM 56.7°F13.7°C 52.9°F11.6°C 87% 6.9 mph N11.1 kmh N 11.5 mph18.5 kmh 29.61 in1002.7 mb - 0.00 in0.0 mm 0.00 in0.0 mm
08:40 AM 56.5°F13.6°C 53.0°F11.7°C 88% 8.1 mph N13.0 kmh N 12.7 mph20.4 kmh 29.60 in1002.4 mb - 0.00 in0.0 mm 0.00 in0.0 mm
08:30 AM 56.4°F13.6°C 52.9°F11.6°C 88% 5.8 mph N9.3 kmh N 12.7 mph20.4 kmh 29.60 in1002.4 mb - 0.00 in0.0 mm 0.00 in0.0 mm
08:20 AM 56.3°F13.5°C 52.8°F11.6°C 88% 10.4 mph N16.7 kmh N 16.1 mph25.9 kmh 29.60 in1002.4 mb - 0.00 in0.0 mm 0.00 in0.0 mm
08:10 AM 56.3°F13.5°C 53.1°F11.7°C 89% 4.6 mph N7.4 kmh N 10.4 mph16.7 kmh 29.59 in1002.0 mb - 0.00 in0.0 mm 0.00 in0.0 mm
08:00 AM 56.2°F13.4°C 53.0°F11.7°C 89% 5.8 mph NNW9.3 kmh NNW 8.1 mph13.0 kmh 29.59 in1002.0 mb - 0.00 in0.0 mm 0.00 in0.0 mm
07:50 AM 56.1°F13.4°C 52.9°F11.6°C 89% 6.9 mph NNE11.1 kmh NNE 9.2 mph14.8 kmh 29.59 in1002.0 mb - 0.00 in0.0 mm 0.00 in0.0 mm
07:40 AM 56.1°F13.4°C 52.9°F11.6°C 89% 5.8 mph NW9.3 kmh NW 11.5 mph18.5 kmh 29.58 in1001.7 mb - 0.00 in0.0 mm 0.00 in0.0 mm
07:30 AM 55.9°F13.3°C 53.0°F11.7°C 90% 5.8 mph NNW9.3 kmh NNW 9.2 mph14.8 kmh 29.58 in1001.7 mb - 0.00 in0.0 mm 0.00 in0.0 mm
07:20 AM 55.6°F13.1°C 52.7°F11.5°C 90% 5.8 mph NNW9.3 kmh NNW 11.5 mph18.5 kmh 29.57 in1001.4 mb - 0.00 in0.0 mm 0.00 in0.0 mm
07:10 AM 55.5°F13.1°C 52.9°F11.6°C 91% 4.6 mph NNW7.4 kmh NNW 5.8 mph9.3 kmh 29.58 in1001.7 mb - 0.00 in0.0 mm 0.00 in0.0 mm
07:00 AM 55.0°F12.8°C 52.4°F11.3°C 91% 5.8 mph NW9.3 kmh NW 12.7 mph20.4 kmh 29.57 in1001.4 mb - 0.00 in0.0 mm 0.00 in0.0 mm
06:50 AM 54.6°F12.6°C 52.3°F11.3°C 92% 4.6 mph NNW7.4 kmh NNW 5.8 mph9.3 kmh 29.57 in1001.4 mb - 0.00 in0.0 mm 0.00 in0.0 mm
06:40 AM 54.3°F12.4°C 52.0°F11.1°C 92% 4.6 mph NNW7.4 kmh NNW 9.2 mph14.8 kmh 29.57 in1001.4 mb - 0.00 in0.0 mm 0.00 in0.0 mm
06:30 AM 54.2°F12.3°C 51.9°F11.1°C 92% 6.9 mph NW11.1 kmh NW 9.2 mph14.8 kmh 29.56 in1001.0 mb - 0.00 in0.0 mm 0.00 in0.0 mm
06:20 AM 53.9°F12.2°C 51.6°F10.9°C 92% 5.8 mph NW9.3 kmh NW 10.4 mph16.7 kmh 29.55 in1000.7 mb - 0.00 in0.0 mm 0.00 in0.0 mm
06:10 AM 53.7°F12.1°C 51.4°F10.8°C 92% 5.8 mph NW9.3 kmh NW 9.2 mph14.8 kmh 29.55 in1000.7 mb - 0.00 in0.0 mm 0.00 in0.0 mm
06:00 AM 53.6°F12.0°C 51.6°F10.9°C 93% 3.5 mph NW5.6 kmh NW 6.9 mph11.1 kmh 29.55 in1000.7 mb - 0.00 in0.0 mm 0.00 in0.0 mm
05:50 AM 53.5°F11.9°C 51.6°F10.9°C 93% 4.6 mph NW7.4 kmh NW 5.8 mph9.3 kmh 29.55 in1000.7 mb - 0.00 in0.0 mm 0.00 in0.0 mm
05:40 AM 53.3°F11.8°C 51.3°F10.7°C 93% 4.6 mph NW7.4 kmh NW 4.6 mph7.4 kmh 29.55 in1000.7 mb - 0.00 in0.0 mm 0.00 in0.0 mm
05:30 AM 53.5°F11.9°C 51.5°F10.8°C 93% 3.5 mph NW5.6 kmh NW 5.8 mph9.3 kmh 29.55 in1000.7 mb - 0.00 in0.0 mm 0.00 in0.0 mm
05:20 AM 53.7°F12.1°C 51.4°F10.8°C 92% 4.6 mph N7.4 kmh N 4.6 mph7.4 kmh 29.54 in1000.3 mb - 0.00 in0.0 mm 0.00 in0.0 mm
05:10 AM 53.8°F12.1°C 51.5°F10.8°C 92% 2.3 mph N3.7 kmh N 4.6 mph7.4 kmh 29.54 in1000.3 mb - 0.00 in0.0 mm 0.00 in0.0 mm
05:00 AM 53.7°F12.1°C 51.7°F10.9°C 93% 2.3 mph N3.7 kmh N 3.5 mph5.6 kmh 29.54 in1000.3 mb - 0.00 in0.0 mm 0.00 in0.0 mm
04:50 AM 53.8°F12.1°C 51.8°F11.0°C 93% 4.6 mph NNW7.4 kmh NNW 5.8 mph9.3 kmh 29.54 in1000.3 mb - 0.00 in0.0 mm 0.00 in0.0 mm
04:40 AM 53.6°F12.0°C 51.7°F10.9°C 93% 4.6 mph N7.4 kmh N 5.8 mph9.3 kmh 29.54 in1000.3 mb - 0.00 in0.0 mm 0.00 in0.0 mm
04:30 AM 53.7°F12.1°C 51.4°F10.8°C 92% 4.6 mph N7.4 kmh N 6.9 mph11.1 kmh 29.53 in1000.0 mb - 0.00 in0.0 mm 0.00 in0.0 mm
04:20 AM 53.8°F12.1°C 51.6°F10.9°C 92% 6.9 mph NW11.1 kmh NW 10.4 mph16.7 kmh 29.53 in1000.0 mb - 0.00 in0.0 mm 0.00 in0.0 mm
04:10 AM 53.9°F12.2°C 51.7°F10.9°C 92% 4.6 mph NNW7.4 kmh NNW 6.9 mph11.1 kmh 29.53 in1000.0 mb - 0.00 in0.0 mm 0.00 in0.0 mm
04:00 AM 54.1°F12.3°C 51.8°F11.0°C 92% 5.8 mph NW9.3 kmh NW 11.5 mph18.5 kmh 29.53 in1000.0 mb - 0.00 in0.0 mm 0.00 in0.0 mm
03:50 AM 54.2°F12.3°C 51.9°F11.1°C 92% 5.8 mph NW9.3 kmh NW 8.1 mph13.0 kmh 29.52 in999.7 mb - 0.00 in0.0 mm 0.00 in0.0 mm
03:40 AM 54.2°F12.3°C 52.0°F11.1°C 92% 4.6 mph NW7.4 kmh NW 8.1 mph13.0 kmh 29.52 in999.7 mb - 0.00 in0.0 mm 0.00 in0.0 mm
03:30 AM 54.6°F12.6°C 52.3°F11.3°C 92% 5.8 mph NW9.3 kmh NW 9.2 mph14.8 kmh 29.52 in999.7 mb - 0.00 in0.0 mm 0.00 in0.0 mm
03:20 AM 54.8°F12.7°C 52.5°F11.4°C 92% 5.8 mph NW9.3 kmh NW 10.4 mph16.7 kmh 29.52 in999.7 mb - 0.00 in0.0 mm 0.00 in0.0 mm
03:10 AM 55.0°F12.8°C 52.4°F11.3°C 91% 6.9 mph NW11.1 kmh NW 9.2 mph14.8 kmh 29.51 in999.3 mb - 0.00 in0.0 mm 0.00 in0.0 mm
03:00 AM 55.3°F12.9°C 52.4°F11.3°C 90% 5.8 mph NW9.3 kmh NW 11.5 mph18.5 kmh 29.51 in999.3 mb - 0.00 in0.0 mm 0.00 in0.0 mm
02:50 AM 55.4°F13.0°C 52.5°F11.4°C 90% 4.6 mph NW7.4 kmh NW 8.1 mph13.0 kmh 29.51 in999.3 mb - 0.00 in0.0 mm 0.00 in0.0 mm
02:40 AM 55.3°F12.9°C 52.1°F11.2°C 89% 5.8 mph NW9.3 kmh NW 10.4 mph16.7 kmh 29.52 in999.7 mb - 0.00 in0.0 mm 0.00 in0.0 mm
02:30 AM 55.3°F12.9°C 52.2°F11.2°C 89% 3.5 mph NW5.6 kmh NW 4.6 mph7.4 kmh 29.52 in999.7 mb - 0.00 in0.0 mm 0.00 in0.0 mm
02:20 AM 55.0°F12.8°C 52.1°F11.2°C 90% 3.5 mph NW5.6 kmh NW 4.6 mph7.4 kmh 29.52 in999.7 mb - 0.00 in0.0 mm 0.00 in0.0 mm
02:10 AM 54.7°F12.6°C 51.8°F11.0°C 90% 3.5 mph N5.6 kmh N 3.5 mph5.6 kmh 29.52 in999.7 mb - 0.00 in0.0 mm 0.00 in0.0 mm
02:00 AM 54.6°F12.6°C 51.7°F10.9°C 90% 2.3 mph N3.7 kmh N 3.5 mph5.6 kmh 29.52 in999.7 mb - 0.00 in0.0 mm 0.00 in0.0 mm
01:50 AM 54.6°F12.6°C 51.7°F10.9°C 90% 3.5 mph N5.6 kmh N 3.5 mph5.6 kmh 29.53 in1000.0 mb - 0.00 in0.0 mm 0.00 in0.0 mm
01:40 AM 55.0°F12.8°C 51.8°F11.0°C 89% 3.5 mph N5.6 kmh N 4.6 mph7.4 kmh 29.52 in999.7 mb - 0.00 in0.0 mm 0.00 in0.0 mm
01:30 AM 55.3°F12.9°C 52.1°F11.2°C 89% 4.6 mph N7.4 kmh N 6.9 mph11.1 kmh 29.52 in999.7 mb - 0.00 in0.0 mm 0.00 in0.0 mm
01:20 AM 55.5°F13.1°C 52.0°F11.1°C 88% 3.5 mph N5.6 kmh N 6.9 mph11.1 kmh 29.52 in999.7 mb - 0.00 in0.0 mm 0.00 in0.0 mm
01:10 AM 55.6°F13.1°C 52.1°F11.2°C 88% 4.6 mph N7.4 kmh N 10.4 mph16.7 kmh 29.52 in999.7 mb - 0.00 in0.0 mm 0.00 in0.0 mm
01:00 AM 55.7°F13.2°C 52.5°F11.4°C 89% 4.6 mph N7.4 kmh N 6.9 mph11.1 kmh 29.53 in1000.0 mb - 0.00 in0.0 mm 0.00 in0.0 mm
12:50 AM 55.7°F13.2°C 52.2°F11.2°C 88% 4.6 mph NNE7.4 kmh NNE 6.9 mph11.1 kmh 29.53 in1000.0 mb - 0.00 in0.0 mm 0.00 in0.0 mm
12:40 AM 55.8°F13.2°C 52.3°F11.3°C 88% 5.8 mph N9.3 kmh N 9.2 mph14.8 kmh 29.53 in1000.0 mb - 0.00 in0.0 mm 0.00 in0.0 mm
12:30 AM 55.9°F13.3°C 52.7°F11.5°C 89% 5.8 mph NNE9.3 kmh NNE 9.2 mph14.8 kmh 29.53 in1000.0 mb - 0.00 in0.0 mm 0.00 in0.0 mm
12:20 AM 56.1°F13.4°C 52.6°F11.4°C 88% 4.6 mph NNE7.4 kmh NNE 8.1 mph13.0 kmh 29.53 in1000.0 mb - 0.00 in0.0 mm 0.00 in0.0 mm
12:10 AM 56.1°F13.4°C 52.5°F11.4°C 88% 3.5 mph N5.6 kmh N 8.1 mph13.0 kmh 29.53 in1000.0 mb - 0.00 in0.0 mm 0.00 in0.0 mm
12:00 AM 56.0°F13.3°C 52.5°F11.4°C 88% 4.6 mph N7.4 kmh N 8.1 mph13.0 kmh 29.53 in1000.0 mb - 0.00 in0.0 mm 0.00 in0.0 mm